sensor_id;sensor_type;location;lat;lon;timestamp;pressure;altitude;pressure_sealevel;temperature;humidity
7930;BME280;4010;42.698;23.124;2023-11-21T00:02:04;118349.16;;;-140.64;100.00
7930;BME280;4010;42.698;23.124;2023-11-21T00:04:31;118349.16;;;-140.64;100.00
7930;BME280;4010;42.698;23.124;2023-11-21T00:06:59;118349.16;;;-140.64;100.00
7930;BME280;4010;42.698;23.124;2023-11-21T00:09:26;118349.16;;;-140.64;100.00
7930;BME280;4010;42.698;23.124;2023-11-21T00:11:52;118349.16;;;-140.64;100.00
7930;BME280;4010;42.698;23.124;2023-11-21T00:14:19;118349.16;;;-140.64;100.00
7930;BME280;4010;42.698;23.124;2023-11-21T00:16:46;118349.16;;;-140.64;100.00
7930;BME280;4010;42.698;23.124;2023-11-21T00:19:13;118349.16;;;-140.64;100.00
7930;BME280;4010;42.698;23.124;2023-11-21T00:21:39;118349.16;;;-140.64;100.00
7930;BME280;4010;42.698;23.124;2023-11-21T00:24:11;118349.16;;;-140.64;100.00
7930;BME280;4010;42.698;23.124;2023-11-21T00:26:39;118349.16;;;-140.64;100.00
7930;BME280;4010;42.698;23.124;2023-11-21T00:29:06;118349.16;;;-140.64;100.00
7930;BME280;4010;42.698;23.124;2023-11-21T00:31:33;118349.16;;;-140.64;100.00
7930;BME280;4010;42.698;23.124;2023-11-21T00:34:02;118349.16;;;-140.64;100.00
7930;BME280;4010;42.698;23.124;2023-11-21T00:36:30;118349.16;;;-140.64;100.00
7930;BME280;4010;42.698;23.124;2023-11-21T00:38:57;118349.16;;;-140.64;100.00
7930;BME280;4010;42.698;23.124;2023-11-21T00:41:26;118349.16;;;-140.64;100.00
7930;BME280;4010;42.698;23.124;2023-11-21T00:43:53;118349.16;;;-140.64;100.00
7930;BME280;4010;42.698;23.124;2023-11-21T00:46:20;118349.16;;;-140.64;100.00
7930;BME280;4010;42.698;23.124;2023-11-21T00:48:47;118349.16;;;-140.64;100.00
7930;BME280;4010;42.698;23.124;2023-11-21T00:51:14;118349.16;;;-140.64;100.00
7930;BME280;4010;42.698;23.124;2023-11-21T00:53:40;118349.16;;;-140.64;100.00
7930;BME280;4010;42.698;23.124;2023-11-21T00:56:07;118349.16;;;-140.64;100.00
7930;BME280;4010;42.698;23.124;2023-11-21T00:58:35;118349.16;;;-140.64;100.00
7930;BME280;4010;42.698;23.124;2023-11-21T01:01:02;118349.16;;;-140.64;100.00
7930;BME280;4010;42.698;23.124;2023-11-21T01:03:29;118349.16;;;-140.64;100.00
7930;BME280;4010;42.698;23.124;2023-11-21T01:05:56;118349.16;;;-140.64;100.00
7930;BME280;4010;42.698;23.124;2023-11-21T01:08:22;118349.16;;;-140.64;100.00
7930;BME280;4010;42.698;23.124;2023-11-21T01:10:50;118349.16;;;-140.64;100.00
7930;BME280;4010;42.698;23.124;2023-11-21T01:13:17;118349.16;;;-140.64;100.00
7930;BME280;4010;42.698;23.124;2023-11-21T01:15:45;118349.16;;;-140.64;100.00
7930;BME280;4010;42.698;23.124;2023-11-21T01:18:12;118349.16;;;-140.64;100.00
7930;BME280;4010;42.698;23.124;2023-11-21T01:20:38;118349.16;;;-140.64;100.00
7930;BME280;4010;42.698;23.124;2023-11-21T01:23:05;118349.16;;;-140.64;100.00
7930;BME280;4010;42.698;23.124;2023-11-21T01:25:32;118349.16;;;-140.64;100.00
7930;BME280;4010;42.698;23.124;2023-11-21T01:27:58;118349.16;;;-140.64;100.00
7930;BME280;4010;42.698;23.124;2023-11-21T01:30:25;118349.16;;;-140.64;100.00
7930;BME280;4010;42.698;23.124;2023-11-21T01:32:53;118349.16;;;-140.64;100.00
7930;BME280;4010;42.698;23.124;2023-11-21T01:35:20;118349.16;;;-140.64;100.00
7930;BME280;4010;42.698;23.124;2023-11-21T01:37:47;118349.16;;;-140.64;100.00
7930;BME280;4010;42.698;23.124;2023-11-21T01:40:14;118349.16;;;-140.64;100.00
7930;BME280;4010;42.698;23.124;2023-11-21T01:42:41;118349.16;;;-140.64;100.00
7930;BME280;4010;42.698;23.124;2023-11-21T01:45:09;118349.16;;;-140.64;100.00
7930;BME280;4010;42.698;23.124;2023-11-21T01:47:38;118349.16;;;-140.64;100.00
7930;BME280;4010;42.698;23.124;2023-11-21T01:50:07;118349.16;;;-140.64;100.00
7930;BME280;4010;42.698;23.124;2023-11-21T01:52:38;118349.16;;;-140.64;100.00
7930;BME280;4010;42.698;23.124;2023-11-21T01:55:07;118349.16;;;-140.64;100.00
7930;BME280;4010;42.698;23.124;2023-11-21T01:57:35;118349.16;;;-140.64;100.00
7930;BME280;4010;42.698;23.124;2023-11-21T02:00:04;118349.16;;;-140.64;100.00
7930;BME280;4010;42.698;23.124;2023-11-21T02:02:41;118349.16;;;-140.64;100.00
7930;BME280;4010;42.698;23.124;2023-11-21T02:05:11;118349.16;;;-140.64;100.00
7930;BME280;4010;42.698;23.124;2023-11-21T02:07:38;118349.16;;;-140.64;100.00
7930;BME280;4010;42.698;23.124;2023-11-21T02:10:06;118349.16;;;-140.64;100.00
7930;BME280;4010;42.698;23.124;2023-11-21T02:12:33;118349.16;;;-140.64;100.00
7930;BME280;4010;42.698;23.124;2023-11-21T02:15:02;118349.16;;;-140.64;100.00
7930;BME280;4010;42.698;23.124;2023-11-21T02:17:30;118349.16;;;-140.64;100.00
7930;BME280;4010;42.698;23.124;2023-11-21T02:19:58;118349.16;;;-140.64;100.00
7930;BME280;4010;42.698;23.124;2023-11-21T02:22:28;118349.16;;;-140.64;100.00
7930;BME280;4010;42.698;23.124;2023-11-21T02:24:59;118349.16;;;-140.64;100.00
7930;BME280;4010;42.698;23.124;2023-11-21T02:27:26;118349.16;;;-140.64;100.00
7930;BME280;4010;42.698;23.124;2023-11-21T02:29:53;118349.16;;;-140.64;100.00
7930;BME280;4010;42.698;23.124;2023-11-21T02:32:20;118349.16;;;-140.64;100.00
7930;BME280;4010;42.698;23.124;2023-11-21T02:34:48;118349.16;;;-140.64;100.00
7930;BME280;4010;42.698;23.124;2023-11-21T02:37:15;118349.16;;;-140.64;100.00
7930;BME280;4010;42.698;23.124;2023-11-21T02:39:42;118349.16;;;-140.64;100.00
7930;BME280;4010;42.698;23.124;2023-11-21T02:42:10;118349.16;;;-140.64;100.00
7930;BME280;4010;42.698;23.124;2023-11-21T02:44:37;118349.16;;;-140.64;100.00
7930;BME280;4010;42.698;23.124;2023-11-21T02:47:04;118349.16;;;-140.64;100.00
7930;BME280;4010;42.698;23.124;2023-11-21T02:49:31;118349.16;;;-140.64;100.00
7930;BME280;4010;42.698;23.124;2023-11-21T02:52:00;118349.16;;;-140.64;100.00
7930;BME280;4010;42.698;23.124;2023-11-21T02:54:26;118349.16;;;-140.64;100.00
7930;BME280;4010;42.698;23.124;2023-11-21T02:56:53;118349.16;;;-140.64;100.00
7930;BME280;4010;42.698;23.124;2023-11-21T02:59:21;118349.16;;;-140.64;100.00
7930;BME280;4010;42.698;23.124;2023-11-21T03:01:48;118349.16;;;-140.64;100.00
7930;BME280;4010;42.698;23.124;2023-11-21T03:04:15;118349.16;;;-140.64;100.00
7930;BME280;4010;42.698;23.124;2023-11-21T03:06:43;118349.16;;;-140.64;100.00
7930;BME280;4010;42.698;23.124;2023-11-21T03:09:10;118349.16;;;-140.64;100.00
7930;BME280;4010;42.698;23.124;2023-11-21T03:11:37;118349.16;;;-140.64;100.00
7930;BME280;4010;42.698;23.124;2023-11-21T03:14:04;118349.16;;;-140.64;100.00
7930;BME280;4010;42.698;23.124;2023-11-21T03:16:33;118349.16;;;-140.64;100.00
7930;BME280;4010;42.698;23.124;2023-11-21T03:19:00;118349.16;;;-140.64;100.00
7930;BME280;4010;42.698;23.124;2023-11-21T03:21:26;118349.16;;;-140.64;100.00
7930;BME280;4010;42.698;23.124;2023-11-21T03:23:54;118349.16;;;-140.64;100.00
7930;BME280;4010;42.698;23.124;2023-11-21T03:26:21;118349.16;;;-140.64;100.00
7930;BME280;4010;42.698;23.124;2023-11-21T03:28:48;118349.16;;;-140.64;100.00
7930;BME280;4010;42.698;23.124;2023-11-21T03:31:15;118349.16;;;-140.64;100.00
7930;BME280;4010;42.698;23.124;2023-11-21T03:33:45;118349.16;;;-140.64;100.00
7930;BME280;4010;42.698;23.124;2023-11-21T03:36:12;118349.16;;;-140.64;100.00
7930;BME280;4010;42.698;23.124;2023-11-21T03:38:40;118349.16;;;-140.64;100.00
7930;BME280;4010;42.698;23.124;2023-11-21T03:41:07;118349.16;;;-140.64;100.00
7930;BME280;4010;42.698;23.124;2023-11-21T03:43:35;118349.16;;;-140.64;100.00
7930;BME280;4010;42.698;23.124;2023-11-21T03:46:02;118349.16;;;-140.64;100.00
7930;BME280;4010;42.698;23.124;2023-11-21T03:48:29;118349.16;;;-140.64;100.00
7930;BME280;4010;42.698;23.124;2023-11-21T03:50:57;118349.16;;;-140.64;100.00
7930;BME280;4010;42.698;23.124;2023-11-21T03:53:24;118349.16;;;-140.64;100.00
7930;BME280;4010;42.698;23.124;2023-11-21T03:55:50;118349.16;;;-140.64;100.00
7930;BME280;4010;42.698;23.124;2023-11-21T03:58:17;118349.16;;;-140.64;100.00
7930;BME280;4010;42.698;23.124;2023-11-21T04:00:44;118349.16;;;-140.64;100.00
7930;BME280;4010;42.698;23.124;2023-11-21T04:03:11;118349.16;;;-140.64;100.00
7930;BME280;4010;42.698;23.124;2023-11-21T04:05:39;118349.16;;;-140.64;100.00
7930;BME280;4010;42.698;23.124;2023-11-21T04:08:08;118349.16;;;-140.64;100.00
7930;BME280;4010;42.698;23.124;2023-11-21T04:10:34;118349.16;;;-140.64;100.00
7930;BME280;4010;42.698;23.124;2023-11-21T04:13:01;118349.16;;;-140.64;100.00
7930;BME280;4010;42.698;23.124;2023-11-21T04:15:28;118349.16;;;-140.64;100.00
7930;BME280;4010;42.698;23.124;2023-11-21T04:17:54;118349.16;;;-140.64;100.00
7930;BME280;4010;42.698;23.124;2023-11-21T04:20:22;118349.16;;;-140.64;100.00
7930;BME280;4010;42.698;23.124;2023-11-21T04:22:49;118349.16;;;-140.64;100.00
7930;BME280;4010;42.698;23.124;2023-11-21T04:25:17;118349.16;;;-140.64;100.00
7930;BME280;4010;42.698;23.124;2023-11-21T04:27:45;118349.16;;;-140.64;100.00
7930;BME280;4010;42.698;23.124;2023-11-21T04:30:12;118349.16;;;-140.64;100.00
7930;BME280;4010;42.698;23.124;2023-11-21T04:32:39;118349.16;;;-140.64;100.00
7930;BME280;4010;42.698;23.124;2023-11-21T04:35:07;118349.16;;;-140.64;100.00
7930;BME280;4010;42.698;23.124;2023-11-21T04:37:35;118349.16;;;-140.64;100.00
7930;BME280;4010;42.698;23.124;2023-11-21T04:40:02;118349.16;;;-140.64;100.00
7930;BME280;4010;42.698;23.124;2023-11-21T04:42:34;118349.16;;;-140.64;100.00
7930;BME280;4010;42.698;23.124;2023-11-21T04:45:01;118349.16;;;-140.64;100.00
7930;BME280;4010;42.698;23.124;2023-11-21T04:47:30;118349.16;;;-140.64;100.00
7930;BME280;4010;42.698;23.124;2023-11-21T04:49:57;118349.16;;;-140.64;100.00
7930;BME280;4010;42.698;23.124;2023-11-21T04:52:24;118349.16;;;-140.64;100.00
7930;BME280;4010;42.698;23.124;2023-11-21T04:54:51;118349.16;;;-140.64;100.00
7930;BME280;4010;42.698;23.124;2023-11-21T04:57:19;118349.16;;;-140.64;100.00
7930;BME280;4010;42.698;23.124;2023-11-21T04:59:48;118349.16;;;-140.64;100.00
7930;BME280;4010;42.698;23.124;2023-11-21T05:02:15;118349.16;;;-140.64;100.00
7930;BME280;4010;42.698;23.124;2023-11-21T05:04:44;118349.16;;;-140.64;100.00
7930;BME280;4010;42.698;23.124;2023-11-21T05:07:11;118349.16;;;-140.64;100.00
7930;BME280;4010;42.698;23.124;2023-11-21T05:09:41;118349.16;;;-140.64;100.00
7930;BME280;4010;42.698;23.124;2023-11-21T05:12:09;118349.16;;;-140.64;100.00
7930;BME280;4010;42.698;23.124;2023-11-21T05:14:36;118349.16;;;-140.64;100.00
7930;BME280;4010;42.698;23.124;2023-11-21T05:17:04;118349.16;;;-140.64;100.00
7930;BME280;4010;42.698;23.124;2023-11-21T05:19:31;118349.16;;;-140.64;100.00
7930;BME280;4010;42.698;23.124;2023-11-21T05:21:58;118349.16;;;-140.64;100.00
7930;BME280;4010;42.698;23.124;2023-11-21T05:24:26;118349.16;;;-140.64;100.00
7930;BME280;4010;42.698;23.124;2023-11-21T05:26:54;118349.16;;;-140.64;100.00
7930;BME280;4010;42.698;23.124;2023-11-21T05:29:21;118349.16;;;-140.64;100.00
7930;BME280;4010;42.698;23.124;2023-11-21T05:31:48;118349.16;;;-140.64;100.00
7930;BME280;4010;42.698;23.124;2023-11-21T05:34:16;118349.16;;;-140.64;100.00
7930;BME280;4010;42.698;23.124;2023-11-21T05:36:43;118349.16;;;-140.64;100.00
7930;BME280;4010;42.698;23.124;2023-11-21T05:39:11;118349.16;;;-140.64;100.00
7930;BME280;4010;42.698;23.124;2023-11-21T05:41:38;118349.16;;;-140.64;100.00
7930;BME280;4010;42.698;23.124;2023-11-21T05:44:05;118349.16;;;-140.64;100.00
7930;BME280;4010;42.698;23.124;2023-11-21T05:46:31;118349.16;;;-140.64;100.00
7930;BME280;4010;42.698;23.124;2023-11-21T05:48:58;118349.16;;;-140.64;100.00
7930;BME280;4010;42.698;23.124;2023-11-21T05:51:26;118349.16;;;-140.64;100.00
7930;BME280;4010;42.698;23.124;2023-11-21T05:53:53;118349.16;;;-140.64;100.00
7930;BME280;4010;42.698;23.124;2023-11-21T05:56:20;118349.16;;;-140.64;100.00
7930;BME280;4010;42.698;23.124;2023-11-21T05:58:47;118349.16;;;-140.64;100.00
7930;BME280;4010;42.698;23.124;2023-11-21T06:01:13;118349.16;;;-140.64;100.00
7930;BME280;4010;42.698;23.124;2023-11-21T06:03:40;118349.16;;;-140.64;100.00
7930;BME280;4010;42.698;23.124;2023-11-21T06:06:08;118349.16;;;-140.64;100.00
7930;BME280;4010;42.698;23.124;2023-11-21T06:08:36;118349.16;;;-140.64;100.00
7930;BME280;4010;42.698;23.124;2023-11-21T06:11:03;118349.16;;;-140.64;100.00
7930;BME280;4010;42.698;23.124;2023-11-21T06:13:29;118349.16;;;-140.64;100.00
7930;BME280;4010;42.698;23.124;2023-11-21T06:15:56;118349.16;;;-140.64;100.00
7930;BME280;4010;42.698;23.124;2023-11-21T06:18:23;118349.16;;;-140.64;100.00
7930;BME280;4010;42.698;23.124;2023-11-21T06:20:50;118349.16;;;-140.64;100.00
7930;BME280;4010;42.698;23.124;2023-11-21T06:23:18;118349.16;;;-140.64;100.00
7930;BME280;4010;42.698;23.124;2023-11-21T06:25:46;118349.16;;;-140.64;100.00
7930;BME280;4010;42.698;23.124;2023-11-21T06:28:14;118349.16;;;-140.64;100.00
7930;BME280;4010;42.698;23.124;2023-11-21T06:30:42;118349.16;;;-140.64;100.00
7930;BME280;4010;42.698;23.124;2023-11-21T06:33:10;118349.16;;;-140.64;100.00
7930;BME280;4010;42.698;23.124;2023-11-21T06:35:37;118349.16;;;-140.64;100.00
7930;BME280;4010;42.698;23.124;2023-11-21T06:38:03;118349.16;;;-140.64;100.00
7930;BME280;4010;42.698;23.124;2023-11-21T06:40:30;118349.16;;;-140.64;100.00
7930;BME280;4010;42.698;23.124;2023-11-21T06:43:00;118349.16;;;-140.64;100.00
7930;BME280;4010;42.698;23.124;2023-11-21T06:45:27;118349.16;;;-140.64;100.00
7930;BME280;4010;42.698;23.124;2023-11-21T06:47:54;118349.16;;;-140.64;100.00
7930;BME280;4010;42.698;23.124;2023-11-21T06:50:20;118349.16;;;-140.64;100.00
7930;BME280;4010;42.698;23.124;2023-11-21T06:52:47;118349.16;;;-140.64;100.00
7930;BME280;4010;42.698;23.124;2023-11-21T06:55:14;118349.16;;;-140.64;100.00
7930;BME280;4010;42.698;23.124;2023-11-21T06:57:41;118349.16;;;-140.64;100.00
7930;BME280;4010;42.698;23.124;2023-11-21T07:00:10;118349.16;;;-140.64;100.00
7930;BME280;4010;42.698;23.124;2023-11-21T07:02:37;118349.16;;;-140.64;100.00
7930;BME280;4010;42.698;23.124;2023-11-21T07:05:05;118349.16;;;-140.64;99.58
7930;BME280;4010;42.698;23.124;2023-11-21T07:07:32;118349.16;;;-140.64;97.89
7930;BME280;4010;42.698;23.124;2023-11-21T07:10:00;118349.16;;;-140.64;97.25
7930;BME280;4010;42.698;23.124;2023-11-21T07:12:28;118349.16;;;-140.64;97.82
7930;BME280;4010;42.698;23.124;2023-11-21T07:14:56;118349.16;;;-140.64;98.24
7930;BME280;4010;42.698;23.124;2023-11-21T07:17:24;118349.16;;;-140.64;98.09
7930;BME280;4010;42.698;23.124;2023-11-21T07:19:51;118349.16;;;-140.64;98.11
7930;BME280;4010;42.698;23.124;2023-11-21T07:22:17;118349.16;;;-140.64;97.72
7930;BME280;4010;42.698;23.124;2023-11-21T07:24:48;118349.16;;;-140.64;97.73
7930;BME280;4010;42.698;23.124;2023-11-21T07:27:15;118349.16;;;-140.64;96.71
7930;BME280;4010;42.698;23.124;2023-11-21T07:29:42;118349.16;;;-140.64;96.83
7930;BME280;4010;42.698;23.124;2023-11-21T07:32:08;118349.16;;;-140.64;95.45
7930;BME280;4010;42.698;23.124;2023-11-21T07:34:37;118349.16;;;-140.64;95.03
7930;BME280;4010;42.698;23.124;2023-11-21T07:37:03;118349.16;;;-140.64;93.50
7930;BME280;4010;42.698;23.124;2023-11-21T07:39:30;118349.16;;;-140.64;92.62
7930;BME280;4010;42.698;23.124;2023-11-21T07:41:57;118349.16;;;-140.64;92.74
7930;BME280;4010;42.698;23.124;2023-11-21T07:44:24;118349.16;;;-140.64;93.37
7930;BME280;4010;42.698;23.124;2023-11-21T07:46:51;118349.16;;;-140.64;94.39
7930;BME280;4010;42.698;23.124;2023-11-21T07:49:22;118349.16;;;-140.64;93.51
7930;BME280;4010;42.698;23.124;2023-11-21T07:51:50;118349.16;;;-140.64;92.25
7930;BME280;4010;42.698;23.124;2023-11-21T07:54:18;118349.16;;;-140.64;91.97
7930;BME280;4010;42.698;23.124;2023-11-21T07:56:44;118349.16;;;-140.64;91.27
7930;BME280;4010;42.698;23.124;2023-11-21T07:59:11;118349.16;;;-140.64;91.55
7930;BME280;4010;42.698;23.124;2023-11-21T08:01:39;118349.16;;;-140.64;90.08
7930;BME280;4010;42.698;23.124;2023-11-21T08:04:08;118349.16;;;-140.64;89.96
7930;BME280;4010;42.698;23.124;2023-11-21T08:06:35;118349.16;;;-140.64;90.87
7930;BME280;4010;42.698;23.124;2023-11-21T08:09:03;118349.16;;;-140.64;89.53
7930;BME280;4010;42.698;23.124;2023-11-21T08:11:31;118349.16;;;-140.64;88.20
7930;BME280;4010;42.698;23.124;2023-11-21T08:13:58;118349.16;;;-140.64;87.57
7930;BME280;4010;42.698;23.124;2023-11-21T08:16:25;118349.16;;;-140.64;87.25
7930;BME280;4010;42.698;23.124;2023-11-21T08:18:52;118349.16;;;-140.64;87.09
7930;BME280;4010;42.698;23.124;2023-11-21T08:21:20;118349.16;;;-140.64;86.76
7930;BME280;4010;42.698;23.124;2023-11-21T08:23:49;118349.16;;;-140.64;86.49
7930;BME280;4010;42.698;23.124;2023-11-21T08:26:20;118349.16;;;-140.64;85.88
7930;BME280;4010;42.698;23.124;2023-11-21T08:28:47;118349.16;;;-140.64;85.39
7930;BME280;4010;42.698;23.124;2023-11-21T08:31:14;118349.16;;;-140.64;85.09
7930;BME280;4010;42.698;23.124;2023-11-21T08:33:41;118349.16;;;-140.64;84.86
7930;BME280;4010;42.698;23.124;2023-11-21T08:36:08;118349.16;;;-140.64;84.52
7930;BME280;4010;42.698;23.124;2023-11-21T08:38:36;118349.16;;;-140.64;84.60
7930;BME280;4010;42.698;23.124;2023-11-21T08:41:05;118349.16;;;-140.64;84.28
7930;BME280;4010;42.698;23.124;2023-11-21T08:43:34;118349.16;;;-140.64;84.70
7930;BME280;4010;42.698;23.124;2023-11-21T08:46:01;118349.16;;;-140.64;83.92
7930;BME280;4010;42.698;23.124;2023-11-21T08:48:28;118349.16;;;-140.64;83.77
7930;BME280;4010;42.698;23.124;2023-11-21T08:50:55;118349.16;;;-140.64;82.17
7930;BME280;4010;42.698;23.124;2023-11-21T08:53:22;118349.16;;;-140.64;82.67
7930;BME280;4010;42.698;23.124;2023-11-21T08:55:51;118349.16;;;-140.64;82.23
7930;BME280;4010;42.698;23.124;2023-11-21T08:58:19;118349.16;;;-140.64;81.46
7930;BME280;4010;42.698;23.124;2023-11-21T09:00:47;118349.16;;;-140.64;80.41
7930;BME280;4010;42.698;23.124;2023-11-21T09:03:14;118349.16;;;-140.64;79.78
7930;BME280;4010;42.698;23.124;2023-11-21T09:05:40;118349.16;;;-140.64;79.28
7930;BME280;4010;42.698;23.124;2023-11-21T09:08:07;118349.16;;;-140.64;79.22
7930;BME280;4010;42.698;23.124;2023-11-21T09:10:34;118349.16;;;-140.64;77.60
7930;BME280;4010;42.698;23.124;2023-11-21T09:13:02;118349.16;;;-140.64;78.56
7930;BME280;4010;42.698;23.124;2023-11-21T09:15:29;118349.16;;;-140.64;78.49
7930;BME280;4010;42.698;23.124;2023-11-21T09:17:57;118349.16;;;-140.64;79.58
7930;BME280;4010;42.698;23.124;2023-11-21T09:20:23;118349.16;;;-140.64;80.88
7930;BME280;4010;42.698;23.124;2023-11-21T09:22:50;118349.16;;;-140.64;79.25
7930;BME280;4010;42.698;23.124;2023-11-21T09:25:17;118349.16;;;-140.64;79.70
7930;BME280;4010;42.698;23.124;2023-11-21T09:27:45;118349.16;;;-140.64;79.66
7930;BME280;4010;42.698;23.124;2023-11-21T09:30:12;118349.16;;;-140.64;79.73
7930;BME280;4010;42.698;23.124;2023-11-21T09:32:40;118349.16;;;-140.64;79.58
7930;BME280;4010;42.698;23.124;2023-11-21T09:35:12;118349.16;;;-140.64;78.78
7930;BME280;4010;42.698;23.124;2023-11-21T09:37:39;118349.16;;;-140.64;78.98
7930;BME280;4010;42.698;23.124;2023-11-21T09:40:10;118349.16;;;-140.64;78.99
7930;BME280;4010;42.698;23.124;2023-11-21T09:42:39;118349.16;;;-140.64;78.50
7930;BME280;4010;42.698;23.124;2023-11-21T09:45:16;118349.16;;;-140.64;77.32
7930;BME280;4010;42.698;23.124;2023-11-21T09:47:46;118349.16;;;-140.64;76.65
7930;BME280;4010;42.698;23.124;2023-11-21T09:50:17;118349.16;;;-140.64;76.12
7930;BME280;4010;42.698;23.124;2023-11-21T09:52:51;118349.16;;;-140.64;73.87
7930;BME280;4010;42.698;23.124;2023-11-21T09:55:21;118349.16;;;-140.64;73.99
7930;BME280;4010;42.698;23.124;2023-11-21T09:57:49;118349.16;;;-140.64;73.53
7930;BME280;4010;42.698;23.124;2023-11-21T10:00:16;118349.16;;;-140.64;72.24
7930;BME280;4010;42.698;23.124;2023-11-21T10:02:45;118349.16;;;-140.64;70.11
7930;BME280;4010;42.698;23.124;2023-11-21T10:05:15;118349.16;;;-140.64;70.82
7930;BME280;4010;42.698;23.124;2023-11-21T10:07:43;118349.16;;;-140.64;68.33
7930;BME280;4010;42.698;23.124;2023-11-21T10:10:13;118349.16;;;-140.64;69.02
7930;BME280;4010;42.698;23.124;2023-11-21T10:12:43;118349.16;;;-140.64;69.88
7930;BME280;4010;42.698;23.124;2023-11-21T10:15:33;118349.16;;;-140.64;68.31
7930;BME280;4010;42.698;23.124;2023-11-21T10:18:02;118349.16;;;-140.64;69.05
7930;BME280;4010;42.698;23.124;2023-11-21T10:20:33;118349.16;;;-140.64;68.39
7930;BME280;4010;42.698;23.124;2023-11-21T10:23:00;118349.16;;;-140.64;68.93
7930;BME280;4010;42.698;23.124;2023-11-21T10:25:28;118349.16;;;-140.64;69.78
7930;BME280;4010;42.698;23.124;2023-11-21T10:27:58;118349.16;;;-140.64;70.26
7930;BME280;4010;42.698;23.124;2023-11-21T10:30:28;118349.16;;;-140.64;72.74
7930;BME280;4010;42.698;23.124;2023-11-21T10:32:59;118349.16;;;-140.64;70.22
7930;BME280;4010;42.698;23.124;2023-11-21T10:35:42;118349.16;;;-140.64;70.30
7930;BME280;4010;42.698;23.124;2023-11-21T10:38:12;118349.16;;;-140.64;69.81
7930;BME280;4010;42.698;23.124;2023-11-21T10:40:40;118349.16;;;-140.64;70.18
7930;BME280;4010;42.698;23.124;2023-11-21T10:43:08;118349.16;;;-140.64;70.13
7930;BME280;4010;42.698;23.124;2023-11-21T10:45:36;118349.16;;;-140.64;70.84
7930;BME280;4010;42.698;23.124;2023-11-21T10:48:05;118349.16;;;-140.64;70.01
7930;BME280;4010;42.698;23.124;2023-11-21T10:50:33;118349.16;;;-140.64;71.39
7930;BME280;4010;42.698;23.124;2023-11-21T10:53:03;118349.16;;;-140.64;71.64
7930;BME280;4010;42.698;23.124;2023-11-21T10:55:30;118349.16;;;-140.64;71.76
7930;BME280;4010;42.698;23.124;2023-11-21T10:57:59;118349.16;;;-140.64;71.19
7930;BME280;4010;42.698;23.124;2023-11-21T11:00:27;118349.16;;;-140.64;72.11
7930;BME280;4010;42.698;23.124;2023-11-21T11:02:54;118349.16;;;-140.64;70.97
7930;BME280;4010;42.698;23.124;2023-11-21T11:05:23;118349.16;;;-140.64;70.77
7930;BME280;4010;42.698;23.124;2023-11-21T11:07:52;118349.16;;;-140.64;71.34
7930;BME280;4010;42.698;23.124;2023-11-21T11:10:26;118349.16;;;-140.64;70.19
7930;BME280;4010;42.698;23.124;2023-11-21T11:12:55;118349.16;;;-140.64;70.48
7930;BME280;4010;42.698;23.124;2023-11-21T11:15:23;118349.16;;;-140.64;70.70
7930;BME280;4010;42.698;23.124;2023-11-21T11:17:50;118349.16;;;-140.64;70.51
7930;BME280;4010;42.698;23.124;2023-11-21T11:20:17;118349.16;;;-140.64;71.48
7930;BME280;4010;42.698;23.124;2023-11-21T11:22:54;118349.16;;;-140.64;71.51
7930;BME280;4010;42.698;23.124;2023-11-21T11:25:38;118349.16;;;-140.64;70.31
7930;BME280;4010;42.698;23.124;2023-11-21T11:28:12;118349.16;;;-140.64;71.61
7930;BME280;4010;42.698;23.124;2023-11-21T11:30:50;118349.16;;;-140.64;73.02
7930;BME280;4010;42.698;23.124;2023-11-21T11:33:25;118349.16;;;-140.64;74.53
7930;BME280;4010;42.698;23.124;2023-11-21T11:36:01;118349.16;;;-140.64;76.69
7930;BME280;4010;42.698;23.124;2023-11-21T11:38:31;118349.16;;;-140.64;79.25
7930;BME280;4010;42.698;23.124;2023-11-21T11:41:01;118349.16;;;-140.64;80.01
7930;BME280;4010;42.698;23.124;2023-11-21T11:43:29;118349.16;;;-140.64;83.25
7930;BME280;4010;42.698;23.124;2023-11-21T11:45:58;118349.16;;;-140.64;82.69
7930;BME280;4010;42.698;23.124;2023-11-21T11:48:25;118349.16;;;-140.64;83.43
7930;BME280;4010;42.698;23.124;2023-11-21T11:51:02;118349.16;;;-140.64;85.49
7930;BME280;4010;42.698;23.124;2023-11-21T11:53:34;118349.16;;;-140.64;87.10
7930;BME280;4010;42.698;23.124;2023-11-21T11:56:21;118349.16;;;-140.64;85.80
7930;BME280;4010;42.698;23.124;2023-11-21T11:58:49;118349.16;;;-140.64;87.29
7930;BME280;4010;42.698;23.124;2023-11-21T12:01:18;118349.16;;;-140.64;89.13
7930;BME280;4010;42.698;23.124;2023-11-21T12:04:24;118349.16;;;-140.64;89.57
7930;BME280;4010;42.698;23.124;2023-11-21T12:06:57;118349.16;;;-140.64;91.62
7930;BME280;4010;42.698;23.124;2023-11-21T12:09:25;118349.16;;;-140.64;91.46
7930;BME280;4010;42.698;23.124;2023-11-21T12:11:54;118349.16;;;-140.64;92.34
7930;BME280;4010;42.698;23.124;2023-11-21T12:14:22;118349.16;;;-140.64;93.94
7930;BME280;4010;42.698;23.124;2023-11-21T12:16:49;118349.16;;;-140.64;94.72
7930;BME280;4010;42.698;23.124;2023-11-21T12:19:17;118349.16;;;-140.64;95.86
7930;BME280;4010;42.698;23.124;2023-11-21T12:21:44;118349.16;;;-140.64;95.08
7930;BME280;4010;42.698;23.124;2023-11-21T12:24:11;118349.16;;;-140.64;96.54
7930;BME280;4010;42.698;23.124;2023-11-21T12:26:39;118349.16;;;-140.64;97.36
7930;BME280;4010;42.698;23.124;2023-11-21T12:29:07;118349.16;;;-140.64;97.67
7930;BME280;4010;42.698;23.124;2023-11-21T12:31:34;118349.16;;;-140.64;96.79
7930;BME280;4010;42.698;23.124;2023-11-21T12:34:01;118349.16;;;-140.64;98.56
7930;BME280;4010;42.698;23.124;2023-11-21T12:36:29;118349.16;;;-140.64;98.86
7930;BME280;4010;42.698;23.124;2023-11-21T12:38:57;118349.16;;;-140.64;99.67
7930;BME280;4010;42.698;23.124;2023-11-21T12:41:23;118349.16;;;-140.64;100.00